sensor_id;sensor_type;location;lat;lon;timestamp;pressure;altitude;pressure_sealevel;temperature;humidity
35848;BME280;22332;51.954;20.118;2023-05-18T00:02:56;100916.92;;;9.63;69.38
35848;BME280;22332;51.954;20.118;2023-05-18T00:06:02;100923.05;;;9.64;69.60
35848;BME280;22332;51.954;20.118;2023-05-18T00:09:10;100934.51;;;9.67;69.49
35848;BME280;22332;51.954;20.118;2023-05-18T00:12:16;100932.77;;;9.69;69.52
35848;BME280;22332;51.954;20.118;2023-05-18T00:15:21;100934.86;;;9.67;68.99
35848;BME280;22332;51.954;20.118;2023-05-18T00:18:27;100938.92;;;9.62;69.05
35848;BME280;22332;51.954;20.118;2023-05-18T00:21:32;100941.87;;;9.54;69.32
35848;BME280;22332;51.954;20.118;2023-05-18T00:24:39;100938.89;;;9.51;69.43
35848;BME280;22332;51.954;20.118;2023-05-18T00:27:44;100940.66;;;9.49;69.29
35848;BME280;22332;51.954;20.118;2023-05-18T00:30:53;100933.06;;;9.45;69.36
35848;BME280;22332;51.954;20.118;2023-05-18T00:33:59;100936.88;;;9.48;69.63
35848;BME280;22332;51.954;20.118;2023-05-18T00:37:04;100938.31;;;9.50;69.56
35848;BME280;22332;51.954;20.118;2023-05-18T00:40:12;100944.02;;;9.49;69.34
35848;BME280;22332;51.954;20.118;2023-05-18T00:43:17;100954.54;;;9.40;69.29
35848;BME280;22332;51.954;20.118;2023-05-18T00:46:24;100947.38;;;9.33;69.29
35848;BME280;22332;51.954;20.118;2023-05-18T00:49:30;100941.55;;;9.26;69.43
35848;BME280;22332;51.954;20.118;2023-05-18T00:52:36;100934.69;;;9.19;69.37
35848;BME280;22332;51.954;20.118;2023-05-18T00:55:42;100933.56;;;9.09;69.22
35848;BME280;22332;51.954;20.118;2023-05-18T00:58:48;100939.88;;;9.08;69.35
35848;BME280;22332;51.954;20.118;2023-05-18T01:01:56;100944.14;;;9.08;69.22
35848;BME280;22332;51.954;20.118;2023-05-18T01:05:03;100950.05;;;9.11;69.28
35848;BME280;22332;51.954;20.118;2023-05-18T01:08:09;100954.70;;;9.17;69.45
35848;BME280;22332;51.954;20.118;2023-05-18T01:11:20;100953.46;;;9.26;69.19
35848;BME280;22332;51.954;20.118;2023-05-18T01:14:34;100953.13;;;9.26;69.11
35848;BME280;22332;51.954;20.118;2023-05-18T01:17:53;100952.52;;;9.28;68.95
35848;BME280;22332;51.954;20.118;2023-05-18T01:21:13;100955.64;;;9.27;69.07
35848;BME280;22332;51.954;20.118;2023-05-18T01:24:30;100960.94;;;9.28;69.20
35848;BME280;22332;51.954;20.118;2023-05-18T01:27:39;100961.63;;;9.30;69.26
35848;BME280;22332;51.954;20.118;2023-05-18T01:30:51;100960.70;;;9.30;69.05
35848;BME280;22332;51.954;20.118;2023-05-18T01:33:56;100962.46;;;9.26;69.14
35848;BME280;22332;51.954;20.118;2023-05-18T01:37:02;100960.30;;;9.22;69.22
35848;BME280;22332;51.954;20.118;2023-05-18T01:40:09;100963.86;;;9.22;69.20
35848;BME280;22332;51.954;20.118;2023-05-18T01:43:18;100965.73;;;9.23;69.57
35848;BME280;22332;51.954;20.118;2023-05-18T01:46:33;100965.52;;;9.22;69.47
35848;BME280;22332;51.954;20.118;2023-05-18T01:49:45;100968.98;;;9.20;69.59
35848;BME280;22332;51.954;20.118;2023-05-18T01:52:57;100970.86;;;9.17;69.70
35848;BME280;22332;51.954;20.118;2023-05-18T01:56:03;100970.11;;;9.11;69.91
35848;BME280;22332;51.954;20.118;2023-05-18T01:59:13;100974.29;;;9.06;69.94
35848;BME280;22332;51.954;20.118;2023-05-18T02:02:19;100974.88;;;8.98;70.17
35848;BME280;22332;51.954;20.118;2023-05-18T02:05:24;100977.70;;;8.92;70.21
35848;BME280;22332;51.954;20.118;2023-05-18T02:08:30;100977.23;;;8.87;70.44
35848;BME280;22332;51.954;20.118;2023-05-18T02:11:38;100974.66;;;8.83;70.63
35848;BME280;22332;51.954;20.118;2023-05-18T02:14:44;100974.09;;;8.84;70.76
35848;BME280;22332;51.954;20.118;2023-05-18T02:17:50;100974.90;;;8.85;70.91
35848;BME280;22332;51.954;20.118;2023-05-18T02:20:59;100972.43;;;8.89;70.76
35848;BME280;22332;51.954;20.118;2023-05-18T02:24:06;100970.14;;;8.91;70.93
35848;BME280;22332;51.954;20.118;2023-05-18T02:27:12;100973.61;;;8.90;71.08
35848;BME280;22332;51.954;20.118;2023-05-18T02:30:19;100975.46;;;8.84;71.19
35848;BME280;22332;51.954;20.118;2023-05-18T02:33:25;100980.23;;;8.78;71.23
35848;BME280;22332;51.954;20.118;2023-05-18T02:36:30;100990.18;;;8.76;71.20
35848;BME280;22332;51.954;20.118;2023-05-18T02:39:40;100992.78;;;8.74;71.39
35848;BME280;22332;51.954;20.118;2023-05-18T02:42:46;100996.97;;;8.73;71.35
35848;BME280;22332;51.954;20.118;2023-05-18T02:45:52;101001.45;;;8.70;71.83
35848;BME280;22332;51.954;20.118;2023-05-18T02:48:58;101002.02;;;8.67;71.70
35848;BME280;22332;51.954;20.118;2023-05-18T02:52:03;101007.23;;;8.67;71.73
35848;BME280;22332;51.954;20.118;2023-05-18T02:55:10;101014.44;;;8.65;72.36
35848;BME280;22332;51.954;20.118;2023-05-18T02:58:28;101018.02;;;8.67;72.35
35848;BME280;22332;51.954;20.118;2023-05-18T03:01:52;101021.64;;;8.68;72.28
35848;BME280;22332;51.954;20.118;2023-05-18T03:04:57;101024.22;;;8.72;72.38
35848;BME280;22332;51.954;20.118;2023-05-18T03:08:03;101028.34;;;8.73;72.45
35848;BME280;22332;51.954;20.118;2023-05-18T03:11:09;101029.06;;;8.75;72.55
35848;BME280;22332;51.954;20.118;2023-05-18T03:14:15;101032.23;;;8.69;72.90
35848;BME280;22332;51.954;20.118;2023-05-18T03:17:21;101034.41;;;8.69;72.98
35848;BME280;22332;51.954;20.118;2023-05-18T03:20:27;101038.34;;;8.68;73.21
35848;BME280;22332;51.954;20.118;2023-05-18T03:23:33;101039.46;;;8.70;73.21
35848;BME280;22332;51.954;20.118;2023-05-18T03:26:39;101040.11;;;8.73;73.75
35848;BME280;22332;51.954;20.118;2023-05-18T03:29:47;101035.11;;;8.75;73.73
35848;BME280;22332;51.954;20.118;2023-05-18T03:32:53;101033.02;;;8.79;74.11
35848;BME280;22332;51.954;20.118;2023-05-18T03:36:02;101038.13;;;8.80;74.15
35848;BME280;22332;51.954;20.118;2023-05-18T03:39:08;101039.36;;;8.80;74.16
35848;BME280;22332;51.954;20.118;2023-05-18T03:42:15;101047.11;;;8.78;74.22
35848;BME280;22332;51.954;20.118;2023-05-18T03:45:20;101051.23;;;8.78;74.37
35848;BME280;22332;51.954;20.118;2023-05-18T03:48:28;101057.87;;;8.72;74.16
35848;BME280;22332;51.954;20.118;2023-05-18T03:51:34;101064.27;;;8.68;74.23
35848;BME280;22332;51.954;20.118;2023-05-18T03:54:40;101067.29;;;8.68;73.90
35848;BME280;22332;51.954;20.118;2023-05-18T03:57:47;101067.96;;;8.72;73.90
35848;BME280;22332;51.954;20.118;2023-05-18T04:00:53;101067.13;;;8.78;73.84
35848;BME280;22332;51.954;20.118;2023-05-18T04:03:59;101069.80;;;8.80;73.39
35848;BME280;22332;51.954;20.118;2023-05-18T04:07:05;101068.60;;;8.84;73.56
35848;BME280;22332;51.954;20.118;2023-05-18T04:10:11;101068.91;;;8.89;73.42
35848;BME280;22332;51.954;20.118;2023-05-18T04:13:20;101070.56;;;8.91;73.18
35848;BME280;22332;51.954;20.118;2023-05-18T04:16:25;101077.98;;;8.96;73.04
35848;BME280;22332;51.954;20.118;2023-05-18T04:19:32;101078.58;;;8.93;72.87
35848;BME280;22332;51.954;20.118;2023-05-18T04:22:41;101082.58;;;8.96;72.83
35848;BME280;22332;51.954;20.118;2023-05-18T04:25:49;101082.70;;;8.95;72.47
35848;BME280;22332;51.954;20.118;2023-05-18T04:28:55;101080.60;;;8.92;72.19
35848;BME280;22332;51.954;20.118;2023-05-18T04:32:03;101085.88;;;8.84;71.88
35848;BME280;22332;51.954;20.118;2023-05-18T04:35:11;101087.28;;;8.81;72.44
35848;BME280;22332;51.954;20.118;2023-05-18T04:38:17;101085.02;;;8.90;72.33
35848;BME280;22332;51.954;20.118;2023-05-18T04:41:26;101088.66;;;8.95;72.46
35848;BME280;22332;51.954;20.118;2023-05-18T04:44:32;101088.14;;;9.09;72.27
35848;BME280;22332;51.954;20.118;2023-05-18T04:47:38;101086.27;;;9.25;72.19
35848;BME280;22332;51.954;20.118;2023-05-18T04:50:44;101091.75;;;9.35;71.23
35848;BME280;22332;51.954;20.118;2023-05-18T04:53:50;101088.26;;;9.27;70.98
35848;BME280;22332;51.954;20.118;2023-05-18T04:57:00;101094.23;;;9.26;70.72
35848;BME280;22332;51.954;20.118;2023-05-18T05:00:09;101096.05;;;9.28;70.89
35848;BME280;22332;51.954;20.118;2023-05-18T05:03:16;101105.80;;;9.30;71.14
35848;BME280;22332;51.954;20.118;2023-05-18T05:06:21;101103.57;;;9.31;70.67
35848;BME280;22332;51.954;20.118;2023-05-18T05:09:27;101109.70;;;9.28;70.72
35848;BME280;22332;51.954;20.118;2023-05-18T05:12:32;101108.83;;;9.32;70.79
35848;BME280;22332;51.954;20.118;2023-05-18T05:15:39;101108.78;;;9.35;70.62
35848;BME280;22332;51.954;20.118;2023-05-18T05:18:45;101109.52;;;9.34;70.01
35848;BME280;22332;51.954;20.118;2023-05-18T05:21:50;101111.14;;;9.36;70.66
35848;BME280;22332;51.954;20.118;2023-05-18T05:24:56;101112.32;;;9.41;70.22
35848;BME280;22332;51.954;20.118;2023-05-18T05:28:03;101114.48;;;9.39;69.74
35848;BME280;22332;51.954;20.118;2023-05-18T05:31:08;101114.35;;;9.40;69.83
35848;BME280;22332;51.954;20.118;2023-05-18T05:34:15;101113.99;;;9.47;69.84
35848;BME280;22332;51.954;20.118;2023-05-18T05:37:20;101111.73;;;9.56;70.13
35848;BME280;22332;51.954;20.118;2023-05-18T05:40:27;101113.14;;;9.69;69.88
35848;BME280;22332;51.954;20.118;2023-05-18T05:43:32;101116.67;;;9.84;69.29
35848;BME280;22332;51.954;20.118;2023-05-18T05:46:38;101115.20;;;10.04;69.91
35848;BME280;22332;51.954;20.118;2023-05-18T05:49:46;101118.26;;;10.31;69.90
35848;BME280;22332;51.954;20.118;2023-05-18T05:52:51;101117.77;;;10.52;69.01
35848;BME280;22332;51.954;20.118;2023-05-18T05:55:58;101119.77;;;10.70;68.59
35848;BME280;22332;51.954;20.118;2023-05-18T05:59:04;101115.33;;;10.84;68.86
35848;BME280;22332;51.954;20.118;2023-05-18T06:02:09;101117.05;;;10.95;67.27
35848;BME280;22332;51.954;20.118;2023-05-18T06:05:16;101121.77;;;10.92;67.42
35848;BME280;22332;51.954;20.118;2023-05-18T06:08:22;101122.27;;;10.94;67.71
35848;BME280;22332;51.954;20.118;2023-05-18T06:11:28;101122.33;;;11.10;67.21
35848;BME280;22332;51.954;20.118;2023-05-18T06:14:34;101120.64;;;11.11;66.42
35848;BME280;22332;51.954;20.118;2023-05-18T06:17:41;101121.16;;;11.09;66.01
35848;BME280;22332;51.954;20.118;2023-05-18T06:20:49;101125.25;;;10.97;66.04
35848;BME280;22332;51.954;20.118;2023-05-18T06:23:56;101125.65;;;10.94;66.34
35848;BME280;22332;51.954;20.118;2023-05-18T06:27:08;101126.06;;;11.10;67.27
35848;BME280;22332;51.954;20.118;2023-05-18T06:30:18;101125.58;;;11.22;66.45
35848;BME280;22332;51.954;20.118;2023-05-18T06:33:43;101123.63;;;11.32;66.24
35848;BME280;22332;51.954;20.118;2023-05-18T06:36:49;101129.86;;;11.40;65.82
35848;BME280;22332;51.954;20.118;2023-05-18T06:39:55;101129.02;;;11.39;65.71
35848;BME280;22332;51.954;20.118;2023-05-18T06:43:00;101125.16;;;11.47;66.62
35848;BME280;22332;51.954;20.118;2023-05-18T06:46:23;101131.61;;;11.70;66.74
35848;BME280;22332;51.954;20.118;2023-05-18T06:49:33;101132.61;;;11.91;66.02
35848;BME280;22332;51.954;20.118;2023-05-18T06:52:39;101143.09;;;12.10;65.36
35848;BME280;22332;51.954;20.118;2023-05-18T06:55:45;101142.23;;;12.30;66.07
35848;BME280;22332;51.954;20.118;2023-05-18T06:58:51;101146.55;;;12.48;65.41
35848;BME280;22332;51.954;20.118;2023-05-18T07:01:56;101146.79;;;12.55;64.56
35848;BME280;22332;51.954;20.118;2023-05-18T07:05:04;101146.77;;;12.55;64.21
35848;BME280;22332;51.954;20.118;2023-05-18T07:08:12;101145.89;;;12.53;63.38
35848;BME280;22332;51.954;20.118;2023-05-18T07:11:17;101148.62;;;12.53;63.66
35848;BME280;22332;51.954;20.118;2023-05-18T07:14:24;101147.70;;;12.53;63.07
35848;BME280;22332;51.954;20.118;2023-05-18T07:17:29;101152.86;;;12.55;62.77
35848;BME280;22332;51.954;20.118;2023-05-18T07:20:35;101151.40;;;12.60;63.00
35848;BME280;22332;51.954;20.118;2023-05-18T07:23:40;101152.67;;;12.69;62.79
35848;BME280;22332;51.954;20.118;2023-05-18T07:26:45;101147.09;;;12.81;63.17
35848;BME280;22332;51.954;20.118;2023-05-18T07:29:51;101146.89;;;12.86;62.38
35848;BME280;22332;51.954;20.118;2023-05-18T07:32:57;101146.86;;;12.89;62.41
35848;BME280;22332;51.954;20.118;2023-05-18T07:36:02;101150.50;;;12.81;60.95
35848;BME280;22332;51.954;20.118;2023-05-18T07:39:08;101146.72;;;12.79;63.40
35848;BME280;22332;51.954;20.118;2023-05-18T07:42:20;101152.63;;;13.00;61.84
35848;BME280;22332;51.954;20.118;2023-05-18T07:45:26;101155.77;;;12.79;60.77
35848;BME280;22332;51.954;20.118;2023-05-18T07:48:31;101152.88;;;12.76;62.43
35848;BME280;22332;51.954;20.118;2023-05-18T07:51:37;101153.09;;;13.08;63.21
35848;BME280;22332;51.954;20.118;2023-05-18T07:54:42;101154.75;;;13.34;62.36
35848;BME280;22332;51.954;20.118;2023-05-18T07:57:48;101150.72;;;13.47;62.65
35848;BME280;22332;51.954;20.118;2023-05-18T08:00:54;101154.48;;;13.62;62.58
35848;BME280;22332;51.954;20.118;2023-05-18T08:03:59;101157.27;;;13.81;62.15
35848;BME280;22332;51.954;20.118;2023-05-18T08:07:05;101152.76;;;13.88;61.34
35848;BME280;22332;51.954;20.118;2023-05-18T08:10:11;101157.29;;;13.95;61.68
35848;BME280;22332;51.954;20.118;2023-05-18T08:13:16;101155.14;;;14.13;61.75
35848;BME280;22332;51.954;20.118;2023-05-18T08:16:22;101159.20;;;14.23;59.42
35848;BME280;22332;51.954;20.118;2023-05-18T08:19:27;101152.29;;;14.18;59.59
35848;BME280;22332;51.954;20.118;2023-05-18T08:22:33;101152.65;;;14.16;60.33
35848;BME280;22332;51.954;20.118;2023-05-18T08:25:38;101152.91;;;14.27;60.77
35848;BME280;22332;51.954;20.118;2023-05-18T08:28:44;101153.77;;;14.41;60.32
35848;BME280;22332;51.954;20.118;2023-05-18T08:31:49;101154.79;;;14.54;60.16
35848;BME280;22332;51.954;20.118;2023-05-18T08:34:55;101157.70;;;14.64;59.61
35848;BME280;22332;51.954;20.118;2023-05-18T08:38:01;101159.69;;;14.78;60.27
35848;BME280;22332;51.954;20.118;2023-05-18T08:41:10;101156.91;;;14.98;59.83
35848;BME280;22332;51.954;20.118;2023-05-18T08:44:21;101159.47;;;15.13;59.09
35848;BME280;22332;51.954;20.118;2023-05-18T08:47:29;101159.48;;;15.21;59.70
35848;BME280;22332;51.954;20.118;2023-05-18T08:50:36;101152.09;;;15.30;59.45
35848;BME280;22332;51.954;20.118;2023-05-18T08:53:42;101156.98;;;15.35;58.44
35848;BME280;22332;51.954;20.118;2023-05-18T08:56:48;101158.33;;;15.12;56.30
35848;BME280;22332;51.954;20.118;2023-05-18T08:59:57;101159.60;;;14.85;57.38
35848;BME280;22332;51.954;20.118;2023-05-18T09:03:06;101158.55;;;14.85;57.16
35848;BME280;22332;51.954;20.118;2023-05-18T09:06:12;101158.31;;;14.69;55.75
35848;BME280;22332;51.954;20.118;2023-05-18T09:09:19;101159.82;;;14.68;57.14
35848;BME280;22332;51.954;20.118;2023-05-18T09:12:27;101158.41;;;14.69;55.53
35848;BME280;22332;51.954;20.118;2023-05-18T09:15:33;101156.39;;;14.77;57.83
35848;BME280;22332;51.954;20.118;2023-05-18T09:18:38;101158.44;;;15.07;57.07
35848;BME280;22332;51.954;20.118;2023-05-18T09:21:44;101157.65;;;15.25;56.14
35848;BME280;22332;51.954;20.118;2023-05-18T09:24:50;101152.72;;;15.38;56.61
35848;BME280;22332;51.954;20.118;2023-05-18T09:27:56;101146.65;;;15.53;55.53
35848;BME280;22332;51.954;20.118;2023-05-18T09:31:01;101145.45;;;15.66;56.60
35848;BME280;22332;51.954;20.118;2023-05-18T09:34:07;101147.74;;;15.93;56.88
35848;BME280;22332;51.954;20.118;2023-05-18T09:37:16;101154.60;;;16.20;56.18
35848;BME280;22332;51.954;20.118;2023-05-18T09:40:28;101156.16;;;16.19;54.02
35848;BME280;22332;51.954;20.118;2023-05-18T09:43:32;101157.48;;;16.06;52.57
35848;BME280;22332;51.954;20.118;2023-05-18T09:46:40;101155.32;;;15.99;55.51
35848;BME280;22332;51.954;20.118;2023-05-18T09:49:46;101156.27;;;16.21;55.11
35848;BME280;22332;51.954;20.118;2023-05-18T09:52:52;101154.45;;;16.45;55.76
35848;BME280;22332;51.954;20.118;2023-05-18T09:56:02;101158.93;;;16.54;54.57
35848;BME280;22332;51.954;20.118;2023-05-18T09:59:13;101161.09;;;16.71;55.19
35848;BME280;22332;51.954;20.118;2023-05-18T10:02:19;101159.30;;;16.86;55.34
35848;BME280;22332;51.954;20.118;2023-05-18T10:05:28;101160.86;;;16.99;54.59
35848;BME280;22332;51.954;20.118;2023-05-18T10:08:37;101159.12;;;17.05;54.48
35848;BME280;22332;51.954;20.118;2023-05-18T10:11:43;101159.15;;;17.05;54.63
35848;BME280;22332;51.954;20.118;2023-05-18T10:14:49;101156.64;;;17.11;54.55
35848;BME280;22332;51.954;20.118;2023-05-18T10:17:56;101160.10;;;17.08;53.69
35848;BME280;22332;51.954;20.118;2023-05-18T10:21:02;101160.55;;;17.12;54.11
35848;BME280;22332;51.954;20.118;2023-05-18T10:24:09;101159.48;;;17.16;53.08
35848;BME280;22332;51.954;20.118;2023-05-18T10:27:19;101156.96;;;16.92;52.05
35848;BME280;22332;51.954;20.118;2023-05-18T10:30:28;101161.77;;;16.67;51.55
35848;BME280;22332;51.954;20.118;2023-05-18T10:33:36;101160.40;;;16.55;52.34
35848;BME280;22332;51.954;20.118;2023-05-18T10:36:42;101160.34;;;16.52;52.78
35848;BME280;22332;51.954;20.118;2023-05-18T10:39:48;101163.77;;;16.47;52.36
35848;BME280;22332;51.954;20.118;2023-05-18T10:42:56;101163.62;;;16.44;53.45
35848;BME280;22332;51.954;20.118;2023-05-18T10:46:02;101161.74;;;16.62;53.88
35848;BME280;22332;51.954;20.118;2023-05-18T10:49:11;101162.77;;;16.89;54.26
35848;BME280;22332;51.954;20.118;2023-05-18T10:52:20;101162.70;;;17.10;52.23
35848;BME280;22332;51.954;20.118;2023-05-18T10:55:26;101164.88;;;16.94;51.50
35848;BME280;22332;51.954;20.118;2023-05-18T10:58:33;101164.76;;;16.84;52.81
35848;BME280;22332;51.954;20.118;2023-05-18T11:01:40;101158.14;;;17.03;52.36
35848;BME280;22332;51.954;20.118;2023-05-18T11:04:47;101159.67;;;17.21;53.13
35848;BME280;22332;51.954;20.118;2023-05-18T11:08:00;101158.24;;;17.32;50.60
35848;BME280;22332;51.954;20.118;2023-05-18T11:11:06;101155.41;;;17.22;52.65
35848;BME280;22332;51.954;20.118;2023-05-18T11:14:12;101155.26;;;17.34;53.04
35848;BME280;22332;51.954;20.118;2023-05-18T11:17:19;101155.45;;;17.45;51.76
35848;BME280;22332;51.954;20.118;2023-05-18T11:20:26;101152.83;;;17.35;51.90
35848;BME280;22332;51.954;20.118;2023-05-18T11:23:33;101151.40;;;17.46;52.50
35848;BME280;22332;51.954;20.118;2023-05-18T11:26:40;101146.81;;;17.71;52.49
35848;BME280;22332;51.954;20.118;2023-05-18T11:29:45;101145.32;;;17.85;52.17
35848;BME280;22332;51.954;20.118;2023-05-18T11:32:52;101139.48;;;17.99;52.16
35848;BME280;22332;51.954;20.118;2023-05-18T11:36:12;101140.83;;;18.11;51.46
35848;BME280;22332;51.954;20.118;2023-05-18T11:39:24;101146.45;;;17.97;49.41
35848;BME280;22332;51.954;20.118;2023-05-18T11:42:32;101155.90;;;17.35;47.24
35848;BME280;22332;51.954;20.118;2023-05-18T11:45:52;101150.55;;;17.13;49.51
35848;BME280;22332;51.954;20.118;2023-05-18T11:49:03;101152.05;;;17.12;48.91
35848;BME280;22332;51.954;20.118;2023-05-18T11:52:14;101156.03;;;16.88;49.49
35848;BME280;22332;51.954;20.118;2023-05-18T11:55:21;101151.91;;;17.04;50.72
35848;BME280;22332;51.954;20.118;2023-05-18T11:58:26;101151.84;;;17.31;51.17
35848;BME280;22332;51.954;20.118;2023-05-18T12:01:34;101153.66;;;17.45;49.78
35848;BME280;22332;51.954;20.118;2023-05-18T12:04:48;101157.89;;;17.18;47.70
35848;BME280;22332;51.954;20.118;2023-05-18T12:07:54;101149.64;;;16.97;48.71
35848;BME280;22332;51.954;20.118;2023-05-18T12:11:00;101150.42;;;17.04;49.80
35848;BME280;22332;51.954;20.118;2023-05-18T12:14:06;101148.48;;;17.20;48.16
35848;BME280;22332;51.954;20.118;2023-05-18T12:17:12;101145.89;;;17.19;48.95
35848;BME280;22332;51.954;20.118;2023-05-18T12:20:20;101155.59;;;17.14;48.55
35848;BME280;22332;51.954;20.118;2023-05-18T12:23:36;101148.20;;;17.13;49.01
35848;BME280;22332;51.954;20.118;2023-05-18T12:26:42;101150.29;;;17.31;49.16
35848;BME280;22332;51.954;20.118;2023-05-18T12:29:50;101155.61;;;17.17;46.79
35848;BME280;22332;51.954;20.118;2023-05-18T12:32:56;101149.06;;;17.08;48.22
35848;BME280;22332;51.954;20.118;2023-05-18T12:36:02;101151.62;;;17.27;49.22
35848;BME280;22332;51.954;20.118;2023-05-18T12:39:07;101156.16;;;17.44;48.44
35848;BME280;22332;51.954;20.118;2023-05-18T12:42:14;101149.13;;;17.60;49.24
35848;BME280;22332;51.954;20.118;2023-05-18T12:45:20;101142.89;;;17.84;49.43
35848;BME280;22332;51.954;20.118;2023-05-18T12:48:26;101147.52;;;17.91;47.89
35848;BME280;22332;51.954;20.118;2023-05-18T12:51:34;101150.02;;;17.75;46.72
35848;BME280;22332;51.954;20.118;2023-05-18T12:54:55;101146.75;;;17.58;46.96
35848;BME280;22332;51.954;20.118;2023-05-18T12:58:04;101146.17;;;17.57;47.53
35848;BME280;22332;51.954;20.118;2023-05-18T13:01:11;101151.17;;;17.50;47.74
35848;BME280;22332;51.954;20.118;2023-05-18T13:04:16;101145.52;;;17.54;48.45
35848;BME280;22332;51.954;20.118;2023-05-18T13:07:22;101152.20;;;17.55;47.70
35848;BME280;22332;51.954;20.118;2023-05-18T13:10:32;101152.98;;;17.34;47.31
35848;BME280;22332;51.954;20.118;2023-05-18T13:13:37;101149.52;;;17.20;48.36
35848;BME280;22332;51.954;20.118;2023-05-18T13:16:48;101149.11;;;17.38;48.56
35848;BME280;22332;51.954;20.118;2023-05-18T13:19:58;101146.29;;;17.52;48.16
35848;BME280;22332;51.954;20.118;2023-05-18T13:23:04;101142.83;;;17.54;48.63
35848;BME280;22332;51.954;20.118;2023-05-18T13:26:11;101145.27;;;17.53;48.07
35848;BME280;22332;51.954;20.118;2023-05-18T13:29:18;101145.05;;;17.48;47.71
35848;BME280;22332;51.954;20.118;2023-05-18T13:32:25;101142.73;;;17.45;47.44
35848;BME280;22332;51.954;20.118;2023-05-18T13:35:30;101136.96;;;17.32;47.73
35848;BME280;22332;51.954;20.118;2023-05-18T13:38:36;101141.45;;;17.33;47.82
35848;BME280;22332;51.954;20.118;2023-05-18T13:41:41;101141.89;;;17.32;47.76
35848;BME280;22332;51.954;20.118;2023-05-18T13:44:47;101143.17;;;17.38;48.11
35848;BME280;22332;51.954;20.118;2023-05-18T13:47:52;101137.52;;;17.37;47.55
35848;BME280;22332;51.954;20.118;2023-05-18T13:50:58;101137.09;;;17.20;46.83
35848;BME280;22332;51.954;20.118;2023-05-18T13:54:04;101140.77;;;17.07;48.14
35848;BME280;22332;51.954;20.118;2023-05-18T13:57:11;101133.58;;;17.02;47.39
35848;BME280;22332;51.954;20.118;2023-05-18T14:00:17;101132.54;;;16.91;47.77
35848;BME280;22332;51.954;20.118;2023-05-18T14:03:23;101135.38;;;16.99;48.14
35848;BME280;22332;51.954;20.118;2023-05-18T14:06:29;101134.64;;;17.07;48.03
35848;BME280;22332;51.954;20.118;2023-05-18T14:09:35;101137.71;;;17.15;47.74
35848;BME280;22332;51.954;20.118;2023-05-18T14:12:40;101138.30;;;17.13;47.91
35848;BME280;22332;51.954;20.118;2023-05-18T14:15:46;101133.88;;;17.04;47.85
35848;BME280;22332;51.954;20.118;2023-05-18T14:18:52;101140.04;;;17.05;47.65
35848;BME280;22332;51.954;20.118;2023-05-18T14:21:57;101137.89;;;17.05;47.43
35848;BME280;22332;51.954;20.118;2023-05-18T14:25:03;101134.21;;;17.06;47.83
35848;BME280;22332;51.954;20.118;2023-05-18T14:28:09;101130.37;;;17.03;47.44
35848;BME280;22332;51.954;20.118;2023-05-18T14:31:14;101135.85;;;17.01;47.76
35848;BME280;22332;51.954;20.118;2023-05-18T14:34:20;101134.78;;;17.06;48.08
35848;BME280;22332;51.954;20.118;2023-05-18T14:37:26;101136.64;;;17.04;47.91
35848;BME280;22332;51.954;20.118;2023-05-18T14:40:31;101139.84;;;16.96;47.40
35848;BME280;22332;51.954;20.118;2023-05-18T14:43:36;101143.37;;;16.82;47.71
35848;BME280;22332;51.954;20.118;2023-05-18T14:46:42;101142.11;;;16.76;47.43
35848;BME280;22332;51.954;20.118;2023-05-18T14:49:48;101141.02;;;16.74;48.04
35848;BME280;22332;51.954;20.118;2023-05-18T14:52:53;101138.89;;;16.71;47.91
35848;BME280;22332;51.954;20.118;2023-05-18T14:55:58;101138.86;;;16.64;48.44
35848;BME280;22332;51.954;20.118;2023-05-18T14:59:07;101140.55;;;16.65;48.83
35848;BME280;22332;51.954;20.118;2023-05-18T15:02:12;101144.16;;;16.64;48.15
35848;BME280;22332;51.954;20.118;2023-05-18T15:05:18;101141.05;;;16.48;48.19
35848;BME280;22332;51.954;20.118;2023-05-18T15:08:24;101138.88;;;16.32;48.26
35848;BME280;22332;51.954;20.118;2023-05-18T15:11:30;101139.98;;;16.19;48.34
35848;BME280;22332;51.954;20.118;2023-05-18T15:14:35;101138.30;;;16.12;48.69
35848;BME280;22332;51.954;20.118;2023-05-18T15:17:41;101140.55;;;16.05;48.84
35848;BME280;22332;51.954;20.118;2023-05-18T15:20:47;101141.45;;;15.95;49.05
35848;BME280;22332;51.954;20.118;2023-05-18T15:23:52;101138.11;;;15.86;48.99
35848;BME280;22332;51.954;20.118;2023-05-18T15:26:58;101138.61;;;15.80;49.21
35848;BME280;22332;51.954;20.118;2023-05-18T15:30:05;101136.39;;;15.68;49.29
35848;BME280;22332;51.954;20.118;2023-05-18T15:33:14;101137.02;;;15.61;49.45
35848;BME280;22332;51.954;20.118;2023-05-18T15:36:20;101136.27;;;15.54;49.73
35848;BME280;22332;51.954;20.118;2023-05-18T15:39:25;101137.17;;;15.53;49.82
35848;BME280;22332;51.954;20.118;2023-05-18T15:42:31;101136.39;;;15.49;49.94
35848;BME280;22332;51.954;20.118;2023-05-18T15:45:37;101143.40;;;15.45;50.11
35848;BME280;22332;51.954;20.118;2023-05-18T15:48:42;101141.02;;;15.40;50.16
35848;BME280;22332;51.954;20.118;2023-05-18T15:51:48;101144.59;;;15.33;50.10
35848;BME280;22332;51.954;20.118;2023-05-18T15:54:53;101145.79;;;15.25;50.33
35848;BME280;22332;51.954;20.118;2023-05-18T15:57:59;101144.67;;;15.22;50.17
35848;BME280;22332;51.954;20.118;2023-05-18T16:01:05;101146.29;;;15.16;49.98
35848;BME280;22332;51.954;20.118;2023-05-18T16:04:11;101146.63;;;15.12;50.11
35848;BME280;22332;51.954;20.118;2023-05-18T16:07:16;101151.10;;;15.12;50.40
35848;BME280;22332;51.954;20.118;2023-05-18T16:10:22;101146.86;;;15.10;50.06